Flight Track Log - Related Links

Times and Time Zones

All times are in EDT time to prevent confusion due to time zone crossing. See the RPA3357 flight status page for this flight to view local times or setup timezone preferences in your user account.

Time Position Orientation Groundspeed Altitude Reporting Facility
EDT Latitude Longitude Course Direction KTS MPH feet Rate Location/Type
Sun 05:48:16 AM 42.7639 -73.8044 282° West 152 175 1,600  Level Boston Center
Sun 05:48:22 AM 42.7681 -73.8058 346° North 157 181 1,800 1,913 Climbing Boston Center
Sun 05:49:25 AM 42.7933 -73.8436 312° West 196 226 3,800 2,091 Climbing Boston Center
Sun 05:49:28 AM 42.7931 -73.8475 264° West 193 222 4,100 3,619 Climbing Boston Center
Sun 05:50:00 AM 42.5619 -73.8999 270° West  Level Estimated
Sun 05:50:28 AM 42.7833 -73.9383 262° West 229 264 7,600  Level Boston Center
Sun 05:51:00 AM 42.4995 -73.9324 220° Southwest  Level Estimated
Sun 05:51:30 AM 42.7742 -74.0322 262° West 249 287 10,700  Level Boston Center
Sun 05:52:00 AM 42.5132 -74.0212 282° West  Level FlightAware Approximate
Sun 05:52:31 AM 42.7269 -74.1189 233° Southwest 294 338 12,900  Level Boston Center
Sun 05:53:00 AM 42.5317 -74.1421 282° West  Level FlightAware Approximate
Sun 05:53:28 AM 42.6711 -74.2053 229° Southwest 304 350 15,700  Level Boston Center
Sun 05:54:28 AM 42.6114 -74.2961 228° Southwest 320 368 18,200 1,623 Climbing Boston Center
Sun 05:55:30 AM 42.5514 -74.3903 229° Southwest 329 379 19,000 390 Climbing Boston Center
Sun 05:56:31 AM 42.4903 -74.4822 228° Southwest 330 380 19,000  Level Boston Center
Sun 05:57:31 AM 42.4286 -74.5767 229° Southwest 335 386 19,000  Level Boston Center
Sun 05:58:29 AM 42.3667 -74.6706 228° Southwest 336 387 19,000  Level Boston Center
Sun 05:59:30 AM 42.3061 -74.7650 229° Southwest 333 383 19,000  Level Boston Center
Sun 06:00:30 AM 42.2503 -74.8478 228° Southwest 341 392 19,000  Level Boston Center
Sun 06:01:32 AM 42.1828 -74.9492 228° Southwest 357 411 19,000  Level Boston Center
Sun 06:02:30 AM 42.0947 -75.0261 213° Southwest 381 438 19,000  Level Boston Center
Sun 06:03:30 AM 41.9925 -75.1075 211° Southwest 372 428 19,000  Level Boston Center
Sun 06:04:31 AM 41.9161 -75.1728 212° Southwest 374 430 19,000  Level Boston Center
Sun 06:05:10 AM 41.8417 -75.2339 211° Southwest 382 440 19,000  Level New York Center
Sun 06:06:10 AM 41.7642 -75.2981 212° Southwest 377 434 19,000 -1,400 Level New York Center
Sun 06:07:10 AM 41.6739 -75.3697 211° Southwest 377 434 16,200 -2,450 Descending New York Center
Sun 06:08:10 AM 41.5836 -75.4439 212° Southwest 372 428 14,100 -1,900 Descending New York Center
Sun 06:09:10 AM 41.5042 -75.5078 211° Southwest 360 414 12,400 -1,050 Descending New York Center
Sun 06:10:10 AM 41.4244 -75.5683 210° Southwest 342 394 12,000 -200 Descending New York Center
Sun 06:11:10 AM 41.3514 -75.6269 211° Southwest 342 394 12,000  Level New York Center
Sun 06:12:10 AM 41.2697 -75.6872 209° Southwest 342 394 12,000  Level New York Center
Sun 06:13:10 AM 41.1703 -75.6717 173° South 347 399 12,000  Level New York Center
Sun 06:14:10 AM 41.0636 -75.6336 165° South 359 413 12,000  Level New York Center
Sun 06:15:10 AM 40.9731 -75.6053 167° South 372 428 12,000  Level New York Center
Sun 06:16:10 AM 40.8744 -75.5736 166° South 372 428 12,000  Level New York Center
Sun 06:17:10 AM 40.7675 -75.5358 165° South 372 428 12,000  Level New York Center
Sun 06:18:10 AM 40.6772 -75.5050 165° South 372 428 12,000  Level New York Center
Sun 06:19:10 AM 40.5806 -75.4736 166° South 372 428 12,000 -1,000 Level New York Center
Sun 06:20:10 AM 40.4817 -75.4422 166° South 372 428 10,000 -1,000 Descending New York Center
Sun 06:21:10 AM 40.3917 -75.3981 160° South 330 380 10,000 -250 Level New York Center
Sun 06:22:10 AM 40.3142 -75.3519 156° South 314 361 9,500 -1,000 Descending New York Center
Sun 06:23:10 AM 40.2494 -75.3017 149° Southeast 308 354 8,000 -800 Descending New York Center
Sun 06:24:10 AM 40.1789 -75.2425 147° Southeast 302 348 7,900 -1,000 Descending New York Center
Sun 06:25:10 AM 40.1064 -75.1756 145° Southeast 297 342 6,000 -1,680 Descending New York Center
Sun 06:25:50 AM 40.0667 -75.1333 141° Southeast 282 325 5,100 -600 Descending Philadelphia TRACON
Sun 06:26:50 AM 40.0167 -75.0667 134° Southeast 227 261 5,000 -750 Descending Philadelphia TRACON
Sun 06:28:14 AM 39.9500 -75.0000 143° Southeast 213 245 3,300 -1,000 Descending Philadelphia TRACON
Sun 06:28:50 AM 39.9167 -75.0000 180° South 190 219 3,000 -375 Descending Philadelphia TRACON
Sun 06:29:50 AM 39.9167 -75.0500 270° West 151 174 2,700 -625 Descending Philadelphia TRACON
Sun 06:31:14 AM 39.9000 -75.1333 255° West 139 160 1,500 -773 Descending Philadelphia TRACON
Sun 06:32:02 AM 39.8833 -75.1500 218° Southwest 88 101 1,000 -500 Descending Philadelphia TRACON
Sun 06:33:02 AM 39.8833 -75.1833 270° West 98 113 600 -400 Descending Philadelphia TRACON

Login

Don't have an account? Register now (free) for customized features, flight alerts, and more!